sensor_id;sensor_type;location;lat;lon;timestamp;temperature;humidity
2002;DHT22;1003;48.002;7.788;2023-07-31T00:02:08;16.10;99.90
2002;DHT22;1003;48.002;7.788;2023-07-31T00:04:35;16.00;99.90
2002;DHT22;1003;48.002;7.788;2023-07-31T00:07:02;16.00;99.90
2002;DHT22;1003;48.002;7.788;2023-07-31T00:09:31;15.90;99.90
2002;DHT22;1003;48.002;7.788;2023-07-31T00:11:58;15.90;99.90
2002;DHT22;1003;48.002;7.788;2023-07-31T00:14:27;15.80;99.90
2002;DHT22;1003;48.002;7.788;2023-07-31T00:16:54;15.80;99.90
2002;DHT22;1003;48.002;7.788;2023-07-31T00:19:21;15.70;99.90
2002;DHT22;1003;48.002;7.788;2023-07-31T00:21:48;15.70;99.90
2002;DHT22;1003;48.002;7.788;2023-07-31T00:24:15;15.60;99.90
2002;DHT22;1003;48.002;7.788;2023-07-31T00:26:42;15.60;99.90
2002;DHT22;1003;48.002;7.788;2023-07-31T00:29:09;15.50;99.90
2002;DHT22;1003;48.002;7.788;2023-07-31T00:31:38;15.40;99.90
2002;DHT22;1003;48.002;7.788;2023-07-31T00:34:05;15.40;99.90
2002;DHT22;1003;48.002;7.788;2023-07-31T00:36:32;15.40;99.90
2002;DHT22;1003;48.002;7.788;2023-07-31T00:38:59;15.30;99.90
2002;DHT22;1003;48.002;7.788;2023-07-31T00:41:26;15.30;99.90
2002;DHT22;1003;48.002;7.788;2023-07-31T00:43:53;15.20;99.90
2002;DHT22;1003;48.002;7.788;2023-07-31T00:46:20;15.10;99.90
2002;DHT22;1003;48.002;7.788;2023-07-31T00:48:49;15.00;99.90
2002;DHT22;1003;48.002;7.788;2023-07-31T00:51:16;15.00;99.90
2002;DHT22;1003;48.002;7.788;2023-07-31T00:53:44;14.90;99.90
2002;DHT22;1003;48.002;7.788;2023-07-31T00:56:12;14.90;99.90
2002;DHT22;1003;48.002;7.788;2023-07-31T00:58:39;14.80;99.90
2002;DHT22;1003;48.002;7.788;2023-07-31T01:01:07;14.70;99.90
2002;DHT22;1003;48.002;7.788;2023-07-31T01:03:34;14.70;99.90
2002;DHT22;1003;48.002;7.788;2023-07-31T01:06:09;14.50;99.90
2002;DHT22;1003;48.002;7.788;2023-07-31T01:08:47;14.50;99.90
2002;DHT22;1003;48.002;7.788;2023-07-31T01:11:25;14.50;99.90
2002;DHT22;1003;48.002;7.788;2023-07-31T01:13:55;14.50;99.90
2002;DHT22;1003;48.002;7.788;2023-07-31T01:16:23;14.50;99.90
2002;DHT22;1003;48.002;7.788;2023-07-31T01:18:51;14.40;99.90
2002;DHT22;1003;48.002;7.788;2023-07-31T01:24:49;14.30;99.90
2002;DHT22;1003;48.002;7.788;2023-07-31T01:27:30;14.30;99.90
2002;DHT22;1003;48.002;7.788;2023-07-31T01:30:07;14.20;99.90
2002;DHT22;1003;48.002;7.788;2023-07-31T01:32:40;14.20;99.90
2002;DHT22;1003;48.002;7.788;2023-07-31T01:35:10;14.20;99.90
2002;DHT22;1003;48.002;7.788;2023-07-31T01:37:37;14.10;99.90
2002;DHT22;1003;48.002;7.788;2023-07-31T01:40:05;14.00;99.90
2002;DHT22;1003;48.002;7.788;2023-07-31T01:42:34;14.00;99.90
2002;DHT22;1003;48.002;7.788;2023-07-31T01:45:02;14.00;99.90
2002;DHT22;1003;48.002;7.788;2023-07-31T01:47:29;14.00;99.90
2002;DHT22;1003;48.002;7.788;2023-07-31T01:49:56;14.00;99.90
2002;DHT22;1003;48.002;7.788;2023-07-31T01:52:23;14.00;99.90
2002;DHT22;1003;48.002;7.788;2023-07-31T01:54:50;14.00;99.90
2002;DHT22;1003;48.002;7.788;2023-07-31T01:57:17;13.90;99.90
2002;DHT22;1003;48.002;7.788;2023-07-31T01:59:45;13.90;99.90
2002;DHT22;1003;48.002;7.788;2023-07-31T02:02:13;13.80;99.90
2002;DHT22;1003;48.002;7.788;2023-07-31T02:04:40;13.80;99.90
2002;DHT22;1003;48.002;7.788;2023-07-31T02:07:07;13.80;99.90
2002;DHT22;1003;48.002;7.788;2023-07-31T02:09:34;13.70;99.90
2002;DHT22;1003;48.002;7.788;2023-07-31T02:12:01;13.70;99.90
2002;DHT22;1003;48.002;7.788;2023-07-31T02:14:28;13.80;99.90
2002;DHT22;1003;48.002;7.788;2023-07-31T02:16:56;13.90;99.90
2002;DHT22;1003;48.002;7.788;2023-07-31T02:19:23;13.90;99.90
2002;DHT22;1003;48.002;7.788;2023-07-31T02:21:50;13.90;99.90
2002;DHT22;1003;48.002;7.788;2023-07-31T02:24:17;14.00;99.90
2002;DHT22;1003;48.002;7.788;2023-07-31T02:26:44;14.10;99.90
2002;DHT22;1003;48.002;7.788;2023-07-31T02:29:11;14.20;99.90
2002;DHT22;1003;48.002;7.788;2023-07-31T02:31:38;14.20;99.90
2002;DHT22;1003;48.002;7.788;2023-07-31T02:34:06;14.30;99.90
2002;DHT22;1003;48.002;7.788;2023-07-31T02:36:33;14.30;99.90
2002;DHT22;1003;48.002;7.788;2023-07-31T02:39:00;14.40;99.90
2002;DHT22;1003;48.002;7.788;2023-07-31T02:41:27;14.40;99.90
2002;DHT22;1003;48.002;7.788;2023-07-31T02:43:54;14.50;99.90
2002;DHT22;1003;48.002;7.788;2023-07-31T02:46:21;14.50;99.90
2002;DHT22;1003;48.002;7.788;2023-07-31T02:48:50;14.50;99.90
2002;DHT22;1003;48.002;7.788;2023-07-31T02:51:18;14.50;99.90
2002;DHT22;1003;48.002;7.788;2023-07-31T02:53:46;14.60;99.90
2002;DHT22;1003;48.002;7.788;2023-07-31T02:56:14;14.60;99.90
2002;DHT22;1003;48.002;7.788;2023-07-31T02:58:40;14.60;99.90
2002;DHT22;1003;48.002;7.788;2023-07-31T03:01:07;14.60;99.90
2002;DHT22;1003;48.002;7.788;2023-07-31T03:03:35;14.60;99.90
2002;DHT22;1003;48.002;7.788;2023-07-31T03:06:02;14.60;99.90
2002;DHT22;1003;48.002;7.788;2023-07-31T03:08:30;14.60;99.90
2002;DHT22;1003;48.002;7.788;2023-07-31T03:10:57;14.60;99.90
2002;DHT22;1003;48.002;7.788;2023-07-31T03:13:24;14.60;99.90
2002;DHT22;1003;48.002;7.788;2023-07-31T03:15:51;14.60;99.90
2002;DHT22;1003;48.002;7.788;2023-07-31T03:18:18;14.60;99.90
2002;DHT22;1003;48.002;7.788;2023-07-31T03:20:45;14.60;99.90
2002;DHT22;1003;48.002;7.788;2023-07-31T03:23:12;14.70;99.90
2002;DHT22;1003;48.002;7.788;2023-07-31T03:25:54;14.70;99.90
2002;DHT22;1003;48.002;7.788;2023-07-31T03:28:22;14.80;99.90
2002;DHT22;1003;48.002;7.788;2023-07-31T03:30:50;14.80;99.90
2002;DHT22;1003;48.002;7.788;2023-07-31T03:33:17;14.90;99.90
2002;DHT22;1003;48.002;7.788;2023-07-31T03:35:44;15.00;99.90
2002;DHT22;1003;48.002;7.788;2023-07-31T03:38:12;15.00;99.90
2002;DHT22;1003;48.002;7.788;2023-07-31T03:40:40;15.10;99.90
2002;DHT22;1003;48.002;7.788;2023-07-31T03:43:08;15.10;99.90
2002;DHT22;1003;48.002;7.788;2023-07-31T03:45:35;15.20;99.90
2002;DHT22;1003;48.002;7.788;2023-07-31T03:48:03;15.20;99.90
2002;DHT22;1003;48.002;7.788;2023-07-31T03:50:30;15.20;99.90
2002;DHT22;1003;48.002;7.788;2023-07-31T03:52:57;15.30;99.90
2002;DHT22;1003;48.002;7.788;2023-07-31T03:55:24;15.30;99.90
2002;DHT22;1003;48.002;7.788;2023-07-31T03:57:52;15.30;99.90
2002;DHT22;1003;48.002;7.788;2023-07-31T04:00:19;15.40;99.90
2002;DHT22;1003;48.002;7.788;2023-07-31T04:02:47;15.40;99.90
2002;DHT22;1003;48.002;7.788;2023-07-31T04:05:14;15.40;99.90
2002;DHT22;1003;48.002;7.788;2023-07-31T04:07:41;15.40;99.90
2002;DHT22;1003;48.002;7.788;2023-07-31T04:10:09;15.50;99.90
2002;DHT22;1003;48.002;7.788;2023-07-31T04:12:36;15.50;99.90
2002;DHT22;1003;48.002;7.788;2023-07-31T04:15:05;15.50;99.90
2002;DHT22;1003;48.002;7.788;2023-07-31T04:17:33;15.60;99.90
2002;DHT22;1003;48.002;7.788;2023-07-31T04:20:00;15.70;99.90
2002;DHT22;1003;48.002;7.788;2023-07-31T04:22:27;15.80;99.90
2002;DHT22;1003;48.002;7.788;2023-07-31T04:24:55;15.80;99.90
2002;DHT22;1003;48.002;7.788;2023-07-31T04:27:22;15.80;99.90
2002;DHT22;1003;48.002;7.788;2023-07-31T04:29:49;15.80;99.90
2002;DHT22;1003;48.002;7.788;2023-07-31T04:32:17;15.80;99.90
2002;DHT22;1003;48.002;7.788;2023-07-31T04:34:46;15.80;99.90
2002;DHT22;1003;48.002;7.788;2023-07-31T04:37:13;15.90;99.90
2002;DHT22;1003;48.002;7.788;2023-07-31T04:39:40;16.00;99.90
2002;DHT22;1003;48.002;7.788;2023-07-31T04:42:07;16.00;99.90
2002;DHT22;1003;48.002;7.788;2023-07-31T04:44:34;16.10;99.90
2002;DHT22;1003;48.002;7.788;2023-07-31T04:47:02;16.10;99.90
2002;DHT22;1003;48.002;7.788;2023-07-31T04:49:31;16.20;99.90
2002;DHT22;1003;48.002;7.788;2023-07-31T04:51:58;16.20;99.90
2002;DHT22;1003;48.002;7.788;2023-07-31T04:54:25;16.30;99.90
2002;DHT22;1003;48.002;7.788;2023-07-31T04:56:52;16.30;99.90
2002;DHT22;1003;48.002;7.788;2023-07-31T04:59:19;16.40;99.90
2002;DHT22;1003;48.002;7.788;2023-07-31T05:01:46;16.50;99.90
2002;DHT22;1003;48.002;7.788;2023-07-31T05:04:14;16.50;99.90
2002;DHT22;1003;48.002;7.788;2023-07-31T05:06:43;16.50;99.90
2002;DHT22;1003;48.002;7.788;2023-07-31T05:09:10;16.60;99.90
2002;DHT22;1003;48.002;7.788;2023-07-31T05:11:37;16.70;99.90
2002;DHT22;1003;48.002;7.788;2023-07-31T05:14:06;16.70;99.90
2002;DHT22;1003;48.002;7.788;2023-07-31T05:16:33;16.80;99.90
2002;DHT22;1003;48.002;7.788;2023-07-31T05:19:00;16.80;99.90
2002;DHT22;1003;48.002;7.788;2023-07-31T05:21:27;16.90;99.90
2002;DHT22;1003;48.002;7.788;2023-07-31T05:23:55;16.90;99.90
2002;DHT22;1003;48.002;7.788;2023-07-31T05:26:22;17.00;99.90
2002;DHT22;1003;48.002;7.788;2023-07-31T05:28:49;17.10;99.90
2002;DHT22;1003;48.002;7.788;2023-07-31T05:31:16;17.20;99.90
2002;DHT22;1003;48.002;7.788;2023-07-31T05:33:43;17.20;99.90
2002;DHT22;1003;48.002;7.788;2023-07-31T05:36:10;17.30;99.90
2002;DHT22;1003;48.002;7.788;2023-07-31T05:38:37;17.30;99.90
2002;DHT22;1003;48.002;7.788;2023-07-31T05:41:05;17.30;99.90
2002;DHT22;1003;48.002;7.788;2023-07-31T05:43:32;17.40;99.90
2002;DHT22;1003;48.002;7.788;2023-07-31T05:45:59;17.40;99.90
2002;DHT22;1003;48.002;7.788;2023-07-31T05:48:26;17.50;99.90
2002;DHT22;1003;48.002;7.788;2023-07-31T05:50:54;17.50;99.90
2002;DHT22;1003;48.002;7.788;2023-07-31T05:53:21;17.50;99.90
2002;DHT22;1003;48.002;7.788;2023-07-31T05:55:48;17.60;99.90
2002;DHT22;1003;48.002;7.788;2023-07-31T05:58:16;17.60;99.90
2002;DHT22;1003;48.002;7.788;2023-07-31T06:00:43;17.80;99.90
2002;DHT22;1003;48.002;7.788;2023-07-31T06:03:10;17.90;99.90
2002;DHT22;1003;48.002;7.788;2023-07-31T06:05:37;18.10;99.90
2002;DHT22;1003;48.002;7.788;2023-07-31T06:08:04;18.30;99.90
2002;DHT22;1003;48.002;7.788;2023-07-31T06:10:31;18.60;99.90
2002;DHT22;1003;48.002;7.788;2023-07-31T06:12:58;18.90;99.90
2002;DHT22;1003;48.002;7.788;2023-07-31T06:15:26;19.00;99.90
2002;DHT22;1003;48.002;7.788;2023-07-31T06:17:53;19.10;99.90
2002;DHT22;1003;48.002;7.788;2023-07-31T06:20:21;19.40;99.90
2002;DHT22;1003;48.002;7.788;2023-07-31T06:22:48;19.50;99.90
2002;DHT22;1003;48.002;7.788;2023-07-31T06:25:15;19.60;99.90
2002;DHT22;1003;48.002;7.788;2023-07-31T06:27:42;19.40;99.90
2002;DHT22;1003;48.002;7.788;2023-07-31T06:30:10;19.30;99.90
2002;DHT22;1003;48.002;7.788;2023-07-31T06:32:39;19.20;99.90
2002;DHT22;1003;48.002;7.788;2023-07-31T06:35:07;19.30;99.90
2002;DHT22;1003;48.002;7.788;2023-07-31T06:37:34;19.40;99.90
2002;DHT22;1003;48.002;7.788;2023-07-31T06:40:01;19.60;99.90
2002;DHT22;1003;48.002;7.788;2023-07-31T06:42:30;19.60;99.90
2002;DHT22;1003;48.002;7.788;2023-07-31T06:44:57;19.50;99.90
2002;DHT22;1003;48.002;7.788;2023-07-31T06:47:24;19.60;99.90
2002;DHT22;1003;48.002;7.788;2023-07-31T06:49:53;19.40;99.90
2002;DHT22;1003;48.002;7.788;2023-07-31T06:52:20;19.30;99.90
2002;DHT22;1003;48.002;7.788;2023-07-31T06:55:00;19.30;99.90
2002;DHT22;1003;48.002;7.788;2023-07-31T06:57:30;19.60;99.90
2002;DHT22;1003;48.002;7.788;2023-07-31T06:59:57;19.60;99.90
2002;DHT22;1003;48.002;7.788;2023-07-31T07:02:25;19.90;99.90
2002;DHT22;1003;48.002;7.788;2023-07-31T07:04:53;20.10;99.90
2002;DHT22;1003;48.002;7.788;2023-07-31T07:07:20;20.20;99.90
2002;DHT22;1003;48.002;7.788;2023-07-31T07:09:47;20.20;99.90
2002;DHT22;1003;48.002;7.788;2023-07-31T07:12:14;20.20;99.90
2002;DHT22;1003;48.002;7.788;2023-07-31T07:14:41;20.20;99.90
2002;DHT22;1003;48.002;7.788;2023-07-31T07:17:08;20.20;99.90
2002;DHT22;1003;48.002;7.788;2023-07-31T07:19:35;20.50;99.90
2002;DHT22;1003;48.002;7.788;2023-07-31T07:22:04;21.30;99.90
2002;DHT22;1003;48.002;7.788;2023-07-31T07:24:32;21.70;99.90
2002;DHT22;1003;48.002;7.788;2023-07-31T07:26:59;21.90;99.90
2002;DHT22;1003;48.002;7.788;2023-07-31T07:29:26;22.10;99.90
2002;DHT22;1003;48.002;7.788;2023-07-31T07:31:53;22.30;99.90
2002;DHT22;1003;48.002;7.788;2023-07-31T07:34:22;22.70;99.90
2002;DHT22;1003;48.002;7.788;2023-07-31T07:36:49;23.20;99.90
2002;DHT22;1003;48.002;7.788;2023-07-31T07:39:18;23.70;99.90
2002;DHT22;1003;48.002;7.788;2023-07-31T07:41:46;24.20;99.90
2002;DHT22;1003;48.002;7.788;2023-07-31T07:44:13;24.40;99.90
2002;DHT22;1003;48.002;7.788;2023-07-31T07:46:41;24.50;99.90
2002;DHT22;1003;48.002;7.788;2023-07-31T07:49:08;24.80;99.90
2002;DHT22;1003;48.002;7.788;2023-07-31T07:51:35;25.00;99.90
2002;DHT22;1003;48.002;7.788;2023-07-31T07:54:02;25.10;99.90
2002;DHT22;1003;48.002;7.788;2023-07-31T07:56:30;24.70;99.90
2002;DHT22;1003;48.002;7.788;2023-07-31T07:58:58;24.30;99.90
2002;DHT22;1003;48.002;7.788;2023-07-31T08:01:25;24.30;99.90
2002;DHT22;1003;48.002;7.788;2023-07-31T08:03:52;24.40;99.90
2002;DHT22;1003;48.002;7.788;2023-07-31T08:06:19;24.40;99.90
2002;DHT22;1003;48.002;7.788;2023-07-31T08:08:46;23.90;99.90
2002;DHT22;1003;48.002;7.788;2023-07-31T08:11:13;23.70;99.90
2002;DHT22;1003;48.002;7.788;2023-07-31T08:13:42;23.70;99.90
2002;DHT22;1003;48.002;7.788;2023-07-31T08:16:09;23.80;99.90
2002;DHT22;1003;48.002;7.788;2023-07-31T08:18:36;23.70;99.90
2002;DHT22;1003;48.002;7.788;2023-07-31T08:21:03;23.60;99.90
2002;DHT22;1003;48.002;7.788;2023-07-31T08:23:30;23.70;99.90
2002;DHT22;1003;48.002;7.788;2023-07-31T08:25:57;24.20;99.90
2002;DHT22;1003;48.002;7.788;2023-07-31T08:28:24;24.30;99.90
2002;DHT22;1003;48.002;7.788;2023-07-31T08:30:53;24.60;99.90
2002;DHT22;1003;48.002;7.788;2023-07-31T08:33:20;24.80;99.90
2002;DHT22;1003;48.002;7.788;2023-07-31T08:35:47;24.70;99.90
2002;DHT22;1003;48.002;7.788;2023-07-31T08:38:14;25.00;99.90
2002;DHT22;1003;48.002;7.788;2023-07-31T08:40:41;25.00;99.90
2002;DHT22;1003;48.002;7.788;2023-07-31T08:43:09;24.60;99.90
2002;DHT22;1003;48.002;7.788;2023-07-31T08:45:37;24.40;99.90
2002;DHT22;1003;48.002;7.788;2023-07-31T08:48:06;24.40;99.90
2002;DHT22;1003;48.002;7.788;2023-07-31T08:50:33;24.60;99.90
2002;DHT22;1003;48.002;7.788;2023-07-31T08:53:01;24.50;99.90
2002;DHT22;1003;48.002;7.788;2023-07-31T08:55:28;24.30;99.90
2002;DHT22;1003;48.002;7.788;2023-07-31T08:57:57;24.40;99.90
2002;DHT22;1003;48.002;7.788;2023-07-31T09:00:25;24.50;99.90
2002;DHT22;1003;48.002;7.788;2023-07-31T09:02:57;24.40;99.90
2002;DHT22;1003;48.002;7.788;2023-07-31T09:05:30;24.60;99.90
2002;DHT22;1003;48.002;7.788;2023-07-31T09:08:00;24.80;99.90
2002;DHT22;1003;48.002;7.788;2023-07-31T09:10:31;25.20;99.90
2002;DHT22;1003;48.002;7.788;2023-07-31T09:12:58;25.50;99.90
2002;DHT22;1003;48.002;7.788;2023-07-31T09:15:27;25.50;99.90
2002;DHT22;1003;48.002;7.788;2023-07-31T09:17:59;25.20;99.90
2002;DHT22;1003;48.002;7.788;2023-07-31T09:20:27;25.30;99.90
2002;DHT22;1003;48.002;7.788;2023-07-31T09:22:56;25.00;99.90
2002;DHT22;1003;48.002;7.788;2023-07-31T09:25:31;25.10;99.90
2002;DHT22;1003;48.002;7.788;2023-07-31T09:27:59;25.00;99.90
2002;DHT22;1003;48.002;7.788;2023-07-31T09:30:28;25.10;99.90
2002;DHT22;1003;48.002;7.788;2023-07-31T09:33:01;24.80;99.90
2002;DHT22;1003;48.002;7.788;2023-07-31T09:35:30;24.90;99.90
2002;DHT22;1003;48.002;7.788;2023-07-31T09:38:03;24.70;99.90
2002;DHT22;1003;48.002;7.788;2023-07-31T09:40:32;24.40;99.90
2002;DHT22;1003;48.002;7.788;2023-07-31T09:43:01;24.50;99.90
2002;DHT22;1003;48.002;7.788;2023-07-31T09:45:33;24.60;99.90
2002;DHT22;1003;48.002;7.788;2023-07-31T09:48:02;24.60;99.90
2002;DHT22;1003;48.002;7.788;2023-07-31T09:50:30;24.50;99.90
2002;DHT22;1003;48.002;7.788;2023-07-31T09:52:57;24.40;99.90
2002;DHT22;1003;48.002;7.788;2023-07-31T09:55:26;24.40;99.90
2002;DHT22;1003;48.002;7.788;2023-07-31T09:57:55;24.40;99.90
2002;DHT22;1003;48.002;7.788;2023-07-31T10:00:24;24.40;99.90
2002;DHT22;1003;48.002;7.788;2023-07-31T10:02:54;24.30;99.90
2002;DHT22;1003;48.002;7.788;2023-07-31T10:05:30;24.40;99.90
2002;DHT22;1003;48.002;7.788;2023-07-31T10:08:00;24.40;99.90
2002;DHT22;1003;48.002;7.788;2023-07-31T10:10:29;24.50;99.90
2002;DHT22;1003;48.002;7.788;2023-07-31T10:12:57;24.60;99.90
2002;DHT22;1003;48.002;7.788;2023-07-31T10:15:25;24.60;99.90
2002;DHT22;1003;48.002;7.788;2023-07-31T10:17:54;24.30;99.90
2002;DHT22;1003;48.002;7.788;2023-07-31T10:20:22;24.10;99.90
2002;DHT22;1003;48.002;7.788;2023-07-31T10:22:51;24.20;99.90
2002;DHT22;1003;48.002;7.788;2023-07-31T10:25:20;24.30;99.90
2002;DHT22;1003;48.002;7.788;2023-07-31T10:27:50;24.40;99.90
2002;DHT22;1003;48.002;7.788;2023-07-31T10:30:21;24.50;99.90
2002;DHT22;1003;48.002;7.788;2023-07-31T10:32:51;24.50;99.90
2002;DHT22;1003;48.002;7.788;2023-07-31T10:35:20;24.40;99.90
2002;DHT22;1003;48.002;7.788;2023-07-31T10:37:48;24.60;99.90
2002;DHT22;1003;48.002;7.788;2023-07-31T10:40:16;24.80;99.90
2002;DHT22;1003;48.002;7.788;2023-07-31T10:42:47;25.10;99.90
2002;DHT22;1003;48.002;7.788;2023-07-31T10:45:26;25.30;99.90
2002;DHT22;1003;48.002;7.788;2023-07-31T10:47:59;25.40;99.90
2002;DHT22;1003;48.002;7.788;2023-07-31T10:50:30;25.70;99.90
2002;DHT22;1003;48.002;7.788;2023-07-31T10:52:59;25.80;99.90
2002;DHT22;1003;48.002;7.788;2023-07-31T10:55:29;26.00;99.90
2002;DHT22;1003;48.002;7.788;2023-07-31T10:58:06;26.10;99.90
2002;DHT22;1003;48.002;7.788;2023-07-31T11:00:37;26.10;99.90
2002;DHT22;1003;48.002;7.788;2023-07-31T11:03:06;26.00;99.90
2002;DHT22;1003;48.002;7.788;2023-07-31T11:05:50;25.90;99.90
2002;DHT22;1003;48.002;7.788;2023-07-31T11:08:20;25.80;99.90
2002;DHT22;1003;48.002;7.788;2023-07-31T11:10:50;25.70;99.90
2002;DHT22;1003;48.002;7.788;2023-07-31T11:13:19;25.40;99.90
2002;DHT22;1003;48.002;7.788;2023-07-31T11:15:47;25.70;99.90
2002;DHT22;1003;48.002;7.788;2023-07-31T11:18:14;25.70;99.90
2002;DHT22;1003;48.002;7.788;2023-07-31T11:20:42;25.30;99.90
2002;DHT22;1003;48.002;7.788;2023-07-31T11:23:10;25.00;99.90
2002;DHT22;1003;48.002;7.788;2023-07-31T11:25:38;25.40;99.90
2002;DHT22;1003;48.002;7.788;2023-07-31T11:28:08;25.50;99.90
2002;DHT22;1003;48.002;7.788;2023-07-31T11:30:37;25.80;99.90
2002;DHT22;1003;48.002;7.788;2023-07-31T11:33:07;25.80;99.90
2002;DHT22;1003;48.002;7.788;2023-07-31T11:35:40;26.20;99.90
2002;DHT22;1003;48.002;7.788;2023-07-31T11:38:11;26.00;99.90
2002;DHT22;1003;48.002;7.788;2023-07-31T11:40:41;25.90;99.90
2002;DHT22;1003;48.002;7.788;2023-07-31T11:43:09;25.70;99.90
2002;DHT22;1003;48.002;7.788;2023-07-31T11:45:42;25.70;99.90
2002;DHT22;1003;48.002;7.788;2023-07-31T11:48:20;25.60;99.90
2002;DHT22;1003;48.002;7.788;2023-07-31T11:50:49;25.70;99.90
2002;DHT22;1003;48.002;7.788;2023-07-31T11:53:19;25.60;99.90
2002;DHT22;1003;48.002;7.788;2023-07-31T11:55:50;26.00;99.90
2002;DHT22;1003;48.002;7.788;2023-07-31T11:58:18;26.10;99.90
2002;DHT22;1003;48.002;7.788;2023-07-31T12:00:46;26.10;99.90
2002;DHT22;1003;48.002;7.788;2023-07-31T12:03:14;26.40;99.90
2002;DHT22;1003;48.002;7.788;2023-07-31T12:05:42;26.30;99.90
2002;DHT22;1003;48.002;7.788;2023-07-31T12:08:10;26.50;99.90
2002;DHT22;1003;48.002;7.788;2023-07-31T12:10:39;26.30;99.90
2002;DHT22;1003;48.002;7.788;2023-07-31T12:13:08;26.40;99.90
2002;DHT22;1003;48.002;7.788;2023-07-31T12:15:40;26.30;99.90
2002;DHT22;1003;48.002;7.788;2023-07-31T12:18:10;26.10;99.90
2002;DHT22;1003;48.002;7.788;2023-07-31T12:20:44;25.90;99.90
2002;DHT22;1003;48.002;7.788;2023-07-31T12:23:16;26.00;99.90
2002;DHT22;1003;48.002;7.788;2023-07-31T12:25:44;26.20;99.90
2002;DHT22;1003;48.002;7.788;2023-07-31T12:28:11;26.40;99.90
2002;DHT22;1003;48.002;7.788;2023-07-31T12:30:39;26.40;99.90
2002;DHT22;1003;48.002;7.788;2023-07-31T12:33:12;26.30;99.90
2002;DHT22;1003;48.002;7.788;2023-07-31T12:35:45;26.40;99.90
2002;DHT22;1003;48.002;7.788;2023-07-31T12:38:13;26.60;99.90
2002;DHT22;1003;48.002;7.788;2023-07-31T12:40:41;26.60;99.90
2002;DHT22;1003;48.002;7.788;2023-07-31T12:43:09;26.60;99.90
2002;DHT22;1003;48.002;7.788;2023-07-31T12:45:36;26.70;99.90
2002;DHT22;1003;48.002;7.788;2023-07-31T12:48:04;27.00;99.90
2002;DHT22;1003;48.002;7.788;2023-07-31T12:50:31;26.80;99.90
2002;DHT22;1003;48.002;7.788;2023-07-31T12:52:59;26.90;99.90
2002;DHT22;1003;48.002;7.788;2023-07-31T12:55:26;26.70;99.90
2002;DHT22;1003;48.002;7.788;2023-07-31T12:57:54;26.60;99.90
2002;DHT22;1003;48.002;7.788;2023-07-31T13:00:21;26.30;99.90
2002;DHT22;1003;48.002;7.788;2023-07-31T13:02:48;26.60;99.90
2002;DHT22;1003;48.002;7.788;2023-07-31T13:05:15;26.60;99.90
2002;DHT22;1003;48.002;7.788;2023-07-31T13:07:42;26.60;99.90
2002;DHT22;1003;48.002;7.788;2023-07-31T13:10:11;26.20;99.90
2002;DHT22;1003;48.002;7.788;2023-07-31T13:12:38;26.40;99.90
2002;DHT22;1003;48.002;7.788;2023-07-31T13:15:07;26.50;99.90
2002;DHT22;1003;48.002;7.788;2023-07-31T13:17:35;26.70;99.90
2002;DHT22;1003;48.002;7.788;2023-07-31T13:20:04;26.60;99.90
2002;DHT22;1003;48.002;7.788;2023-07-31T13:22:31;26.70;99.90
2002;DHT22;1003;48.002;7.788;2023-07-31T13:24:58;26.80;99.90
2002;DHT22;1003;48.002;7.788;2023-07-31T13:27:27;26.80;99.90
2002;DHT22;1003;48.002;7.788;2023-07-31T13:29:54;26.70;99.90
2002;DHT22;1003;48.002;7.788;2023-07-31T13:32:21;26.70;99.90
2002;DHT22;1003;48.002;7.788;2023-07-31T13:34:48;26.60;99.90
2002;DHT22;1003;48.002;7.788;2023-07-31T13:37:16;26.90;99.90
2002;DHT22;1003;48.002;7.788;2023-07-31T13:39:43;27.20;99.90
2002;DHT22;1003;48.002;7.788;2023-07-31T13:42:10;27.10;99.90
2002;DHT22;1003;48.002;7.788;2023-07-31T13:44:39;27.30;99.90
2002;DHT22;1003;48.002;7.788;2023-07-31T13:47:06;26.90;99.90
2002;DHT22;1003;48.002;7.788;2023-07-31T13:49:35;27.10;99.90
2002;DHT22;1003;48.002;7.788;2023-07-31T13:52:05;27.30;99.90
2002;DHT22;1003;48.002;7.788;2023-07-31T13:54:32;27.20;99.90
2002;DHT22;1003;48.002;7.788;2023-07-31T13:57:00;27.00;99.90
2002;DHT22;1003;48.002;7.788;2023-07-31T13:59:27;26.90;99.90
2002;DHT22;1003;48.002;7.788;2023-07-31T14:01:55;27.10;99.90
2002;DHT22;1003;48.002;7.788;2023-07-31T14:04:22;27.50;99.90
2002;DHT22;1003;48.002;7.788;2023-07-31T14:06:49;27.30;99.90
2002;DHT22;1003;48.002;7.788;2023-07-31T14:09:17;27.40;99.90
2002;DHT22;1003;48.002;7.788;2023-07-31T14:11:44;27.50;99.90
2002;DHT22;1003;48.002;7.788;2023-07-31T14:14:11;27.60;99.90
2002;DHT22;1003;48.002;7.788;2023-07-31T14:16:39;27.60;99.90
2002;DHT22;1003;48.002;7.788;2023-07-31T14:19:07;27.60;99.90
2002;DHT22;1003;48.002;7.788;2023-07-31T14:21:35;27.40;99.90
2002;DHT22;1003;48.002;7.788;2023-07-31T14:24:02;27.30;99.90
2002;DHT22;1003;48.002;7.788;2023-07-31T14:26:30;27.30;99.90
2002;DHT22;1003;48.002;7.788;2023-07-31T14:28:57;27.40;99.90
2002;DHT22;1003;48.002;7.788;2023-07-31T14:31:24;27.40;99.90
2002;DHT22;1003;48.002;7.788;2023-07-31T14:33:51;27.40;99.90
2002;DHT22;1003;48.002;7.788;2023-07-31T14:36:19;27.40;99.90
2002;DHT22;1003;48.002;7.788;2023-07-31T14:38:46;27.50;99.90
2002;DHT22;1003;48.002;7.788;2023-07-31T14:41:14;27.70;99.90
2002;DHT22;1003;48.002;7.788;2023-07-31T14:43:41;27.60;99.90
2002;DHT22;1003;48.002;7.788;2023-07-31T14:46:08;27.60;99.90
2002;DHT22;1003;48.002;7.788;2023-07-31T14:48:35;27.70;99.90
2002;DHT22;1003;48.002;7.788;2023-07-31T14:51:02;27.60;99.90
2002;DHT22;1003;48.002;7.788;2023-07-31T14:53:31;27.60;99.90
2002;DHT22;1003;48.002;7.788;2023-07-31T14:55:58;27.50;99.90
2002;DHT22;1003;48.002;7.788;2023-07-31T14:58:25;27.50;99.90
2002;DHT22;1003;48.002;7.788;2023-07-31T15:00:52;27.80;99.90
2002;DHT22;1003;48.002;7.788;2023-07-31T15:03:19;27.60;99.90
2002;DHT22;1003;48.002;7.788;2023-07-31T15:05:47;27.60;99.90
2002;DHT22;1003;48.002;7.788;2023-07-31T15:08:14;27.80;99.90
2002;DHT22;1003;48.002;7.788;2023-07-31T15:10:43;27.90;99.90
2002;DHT22;1003;48.002;7.788;2023-07-31T15:13:11;28.00;99.90
2002;DHT22;1003;48.002;7.788;2023-07-31T15:15:38;27.90;99.90
2002;DHT22;1003;48.002;7.788;2023-07-31T15:18:06;27.70;99.90
2002;DHT22;1003;48.002;7.788;2023-07-31T15:20:33;27.60;99.90
2002;DHT22;1003;48.002;7.788;2023-07-31T15:23:01;27.60;99.90
2002;DHT22;1003;48.002;7.788;2023-07-31T15:25:28;27.50;99.90
2002;DHT22;1003;48.002;7.788;2023-07-31T15:27:56;27.50;99.90
2002;DHT22;1003;48.002;7.788;2023-07-31T15:30:24;27.50;99.90
2002;DHT22;1003;48.002;7.788;2023-07-31T15:32:52;27.20;99.90
2002;DHT22;1003;48.002;7.788;2023-07-31T15:35:19;27.30;99.90
2002;DHT22;1003;48.002;7.788;2023-07-31T15:37:46;27.30;99.90
2002;DHT22;1003;48.002;7.788;2023-07-31T15:40:13;27.20;99.90
2002;DHT22;1003;48.002;7.788;2023-07-31T15:42:40;27.20;99.90
2002;DHT22;1003;48.002;7.788;2023-07-31T15:45:09;27.40;99.90
2002;DHT22;1003;48.002;7.788;2023-07-31T15:47:36;27.40;99.90
2002;DHT22;1003;48.002;7.788;2023-07-31T15:50:05;27.20;99.90
2002;DHT22;1003;48.002;7.788;2023-07-31T15:52:33;27.00;99.90
2002;DHT22;1003;48.002;7.788;2023-07-31T15:55:00;27.00;99.90
2002;DHT22;1003;48.002;7.788;2023-07-31T15:57:27;26.90;99.90
2002;DHT22;1003;48.002;7.788;2023-07-31T15:59:54;26.80;99.90
2002;DHT22;1003;48.002;7.788;2023-07-31T16:02:22;26.70;99.90
2002;DHT22;1003;48.002;7.788;2023-07-31T16:04:49;26.70;99.90
2002;DHT22;1003;48.002;7.788;2023-07-31T16:07:16;26.50;99.90
2002;DHT22;1003;48.002;7.788;2023-07-31T16:09:43;26.30;99.90
2002;DHT22;1003;48.002;7.788;2023-07-31T16:12:11;26.00;99.90